Time;durP1;ratioP1;P1;durP2;ratioP2;P2;SDS_P1;SDS_P2;PMS_P1;PMS_P2;Temp;Humidity;BMP_temperature;BMP_pressure;BME280_temperature;BME280_humidity;BME280_pressure;Samples;Min_cycle;Max_cycle;Signal;HPM_P1;HPM_P2
2021/10/18 00:00:36;;;;;;;13.00;8.30;;;11.90;99.90;;;;;;5051042;28;20774;-54
2021/10/18 00:03:02;;;;;;;10.33;7.27;;;11.80;99.90;;;;;;5050800;28;20974;-54
2021/10/18 00:05:32;;;;;;;12.67;8.27;;;12.10;99.90;;;;;;5051435;28;20423;-52
2021/10/18 00:07:58;;;;;;;10.97;7.90;;;12.10;99.90;;;;;;5054323;28;20432;-52
2021/10/18 00:10:25;;;;;;;15.17;8.50;;;12.20;99.90;;;;;;5054991;28;20445;-52
2021/10/18 00:12:52;;;;;;;11.90;8.20;;;12.00;99.90;;;;;;5054621;28;20436;-51
2021/10/18 00:15:20;;;;;;;14.90;9.13;;;11.90;99.90;;;;;;5054604;28;20432;-50
2021/10/18 00:17:48;;;;;;;13.60;7.47;;;12.20;99.90;;;;;;5054180;28;20489;-51
2021/10/18 00:20:16;;;;;;;14.57;7.93;;;12.00;99.90;;;;;;5054356;28;20451;-51
2021/10/18 00:22:44;;;;;;;11.40;8.17;;;12.00;99.90;;;;;;5054725;28;20482;-51
2021/10/18 00:25:11;;;;;;;12.23;7.80;;;12.00;99.90;;;;;;5054170;28;21280;-52
2021/10/18 00:27:38;;;;;;;14.07;9.50;;;12.40;99.90;;;;;;5054278;28;20512;-51
2021/10/18 00:30:06;;;;;;;12.10;8.70;;;12.00;99.90;;;;;;5054125;28;20450;-52
2021/10/18 00:32:35;;;;;;;14.50;8.03;;;12.00;99.90;;;;;;5054245;28;20423;-50
2021/10/18 00:35:01;;;;;;;12.43;9.47;;;12.20;99.90;;;;;;5054241;28;20435;-50
2021/10/18 00:37:28;;;;;;;16.77;9.10;;;12.00;99.90;;;;;;5054291;28;20431;-50
2021/10/18 00:39:54;;;;;;;12.97;9.97;;;12.00;99.90;;;;;;5053786;28;20425;-52
2021/10/18 00:42:21;;;;;;;15.13;9.97;;;12.00;99.90;;;;;;5054247;28;20480;-51
2021/10/18 00:44:49;;;;;;;13.23;10.97;;;12.20;99.90;;;;;;5053878;28;20825;-50
2021/10/18 00:47:17;;;;;;;12.93;10.30;;;11.80;99.90;;;;;;5053909;28;20936;-51
2021/10/18 00:49:45;;;;;;;17.33;10.50;;;12.40;99.90;;;;;;5053329;28;20449;-51
2021/10/18 00:52:12;;;;;;;17.47;11.17;;;12.10;99.90;;;;;;5053919;28;20432;-52
2021/10/18 00:54:40;;;;;;;16.63;10.80;;;12.40;99.90;;;;;;5053947;28;20434;-50
2021/10/18 00:57:06;;;;;;;17.53;11.00;;;12.00;99.90;;;;;;5054050;28;20930;-50
2021/10/18 00:59:34;;;;;;;10.90;9.00;;;12.10;99.90;;;;;;5053298;28;20771;-52
2021/10/18 01:02:01;;;;;;;13.13;9.93;;;11.80;99.90;;;;;;5053819;28;20495;-50
2021/10/18 01:04:28;;;;;;;14.80;9.43;;;12.00;99.90;;;;;;5053756;28;20400;-50
2021/10/18 01:06:57;;;;;;;11.77;8.97;;;12.00;99.90;;;;;;5053621;28;20937;-51
2021/10/18 01:09:24;;;;;;;13.93;9.70;;;12.20;99.90;;;;;;5053158;28;20453;-50
2021/10/18 01:11:51;;;;;;;19.47;9.90;;;12.00;99.90;;;;;;5053680;28;20411;-51
2021/10/18 01:14:17;;;;;;;12.50;9.93;;;11.60;99.90;;;;;;5053594;28;20431;-52
2021/10/18 01:16:44;;;;;;;12.47;9.03;;;11.70;99.90;;;;;;5053411;28;20506;-51
2021/10/18 01:19:11;;;;;;;13.43;9.70;;;12.20;99.90;;;;;;5052981;28;20437;-51
2021/10/18 01:21:40;;;;;;;15.07;10.33;;;12.30;99.90;;;;;;5053358;28;20415;-51
2021/10/18 01:24:08;;;;;;;13.60;9.30;;;12.00;99.90;;;;;;5053405;28;20440;-50
2021/10/18 01:26:35;;;;;;;9.80;8.67;;;12.30;99.90;;;;;;5053495;28;20441;-51
2021/10/18 01:29:01;;;;;;;11.27;9.07;;;11.70;99.90;;;;;;5052775;28;20430;-52
2021/10/18 01:31:28;;;;;;;13.93;9.40;;;12.40;99.90;;;;;;5053234;28;20434;-52
2021/10/18 01:33:55;;;;;;;14.47;9.83;;;12.20;99.90;;;;;;5053151;28;20425;-50
2021/10/18 01:36:21;;;;;;;11.27;9.47;;;12.20;99.90;;;;;;5053066;28;20947;-52
2021/10/18 01:38:49;;;;;;;10.53;9.43;;;12.30;99.90;;;;;;5052986;28;20429;-51
2021/10/18 01:41:16;;;;;;;13.43;9.40;;;12.30;99.90;;;;;;5053138;28;20545;-51
2021/10/18 01:43:43;;;;;;;9.93;8.90;;;11.80;99.90;;;;;;5035055;28;21020;-51
2021/10/18 01:46:09;;;;;;;11.50;9.70;;;11.90;99.90;;;;;;5052782;28;20431;-50
2021/10/18 01:48:36;;;;;;;18.67;11.30;;;12.40;99.90;;;;;;5052416;28;20433;-51
2021/10/18 01:51:03;;;;;;;12.00;10.23;;;12.10;99.90;;;;;;5052902;28;20521;-51
2021/10/18 01:53:29;;;;;;;16.33;12.10;;;12.10;99.90;;;;;;5052838;28;20451;-50
2021/10/18 01:55:57;;;;;;;16.43;11.60;;;12.20;99.90;;;;;;5052803;28;20403;-52
2021/10/18 01:58:24;;;;;;;15.87;13.10;;;11.90;99.90;;;;;;5052252;28;20415;-52
2021/10/18 02:00:50;;;;;;;13.83;12.37;;;12.40;99.90;;;;;;5052478;28;20793;-50
2021/10/18 02:03:17;;;;;;;17.33;12.50;;;12.60;99.90;;;;;;5052592;28;20490;-51
2021/10/18 02:05:44;;;;;;;16.30;12.60;;;12.10;99.90;;;;;;5052558;28;20432;-50
2021/10/18 02:08:10;;;;;;;18.20;14.07;;;12.30;99.90;;;;;;5052191;28;20432;-51
2021/10/18 02:10:37;;;;;;;14.70;12.73;;;12.40;99.90;;;;;;5052436;28;20464;-51
2021/10/18 02:13:05;;;;;;;21.63;14.17;;;12.50;99.90;;;;;;5052286;28;20436;-50
2021/10/18 02:15:32;;;;;;;18.83;13.70;;;12.40;99.90;;;;;;5052257;28;20433;-51
2021/10/18 02:17:59;;;;;;;18.37;12.77;;;11.70;99.90;;;;;;5034036;28;20448;-52
2021/10/18 02:20:26;;;;;;;15.00;12.83;;;12.40;99.90;;;;;;5052112;28;20451;-50
2021/10/18 02:22:52;;;;;;;14.03;11.80;;;12.10;99.90;;;;;;5052242;28;20476;-49
2021/10/18 02:25:19;;;;;;;13.57;12.17;;;12.00;99.90;;;;;;5052184;28;20441;-51
2021/10/18 02:27:50;;;;;;;18.97;12.30;;;12.30;99.90;;;;;;5051735;28;20434;-51
2021/10/18 02:30:18;;;;;;;15.40;9.13;;;12.10;99.90;;;;;;5051649;28;20452;-50
2021/10/18 02:32:45;;;;;;;10.93;8.07;;;12.10;99.90;;;;;;5051949;28;20423;-51
2021/10/18 02:35:12;;;;;;;12.50;8.20;;;12.20;99.90;;;;;;5052015;28;20411;-51
2021/10/18 02:37:39;;;;;;;13.13;7.60;;;12.30;99.90;;;;;;5051593;28;20450;-52
2021/10/18 02:40:07;;;;;;;9.00;6.20;;;12.60;99.90;;;;;;5051924;28;20461;-51
2021/10/18 02:42:34;;;;;;;10.60;6.97;;;12.30;99.90;;;;;;5051747;28;20450;-51
2021/10/18 02:45:01;;;;;;;9.53;7.07;;;12.40;99.90;;;;;;5051834;28;20441;-51
2021/10/18 02:47:29;;;;;;;10.90;6.50;;;12.30;99.90;;;;;;5051769;28;20420;-51
2021/10/18 02:49:55;;;;;;;11.97;7.10;;;12.20;99.90;;;;;;5051793;28;20445;-52
2021/10/18 02:52:22;;;;;;;12.13;6.90;;;12.00;99.90;;;;;;5051768;28;20940;-51
2021/10/18 02:54:48;;;;;;;9.00;6.23;;;11.90;99.90;;;;;;5051781;28;20432;-51
2021/10/18 02:57:15;;;;;;;11.57;6.37;;;12.20;99.90;;;;;;5051578;28;20436;-52
2021/10/18 02:59:42;;;;;;;10.77;7.20;;;11.70;99.90;;;;;;5051429;28;20452;-51
2021/10/18 03:02:10;;;;;;;10.07;7.20;;;12.00;99.90;;;;;;5051639;28;20519;-52
2021/10/18 03:04:38;;;;;;;8.93;5.87;;;12.60;99.90;;;;;;5051581;28;20873;-52
2021/10/18 03:07:05;;;;;;;10.23;6.60;;;11.90;99.90;;;;;;5051589;28;20446;-52
2021/10/18 03:09:31;;;;;;;9.00;6.20;;;12.00;99.90;;;;;;5050972;28;20478;-51
2021/10/18 03:11:58;;;;;;;7.37;6.30;;;12.20;99.90;;;;;;5051369;28;20896;-51
2021/10/18 03:14:25;;;;;;;11.17;6.00;;;12.60;99.90;;;;;;5051322;28;20485;-51
2021/10/18 03:16:52;;;;;;;6.90;5.73;;;11.90;99.90;;;;;;5051563;28;20528;-51
2021/10/18 03:19:18;;;;;;;10.97;5.60;;;12.10;99.90;;;;;;5051103;28;20468;-51
2021/10/18 03:21:46;;;;;;;7.03;5.20;;;12.40;99.90;;;;;;5051446;28;20493;-52
2021/10/18 03:24:13;;;;;;;8.47;5.60;;;12.50;99.90;;;;;;5051458;28;20480;-52
2021/10/18 03:26:40;;;;;;;8.80;6.63;;;11.70;99.90;;;;;;5051199;28;20923;-52
2021/10/18 03:29:06;;;;;;;7.80;5.00;;;12.60;99.90;;;;;;5050830;28;20448;-52
2021/10/18 03:31:33;;;;;;;8.73;5.57;;;12.10;99.90;;;;;;5051734;28;20520;-52
2021/10/18 03:34:00;;;;;;;9.90;6.37;;;12.10;99.90;;;;;;5051480;28;20823;-52
2021/10/18 03:36:26;;;;;;;13.50;5.90;;;12.40;99.90;;;;;;5051283;28;20948;-52
2021/10/18 03:38:54;;;;;;;11.10;5.80;;;12.20;99.90;;;;;;5051055;28;20433;-52
2021/10/18 03:41:21;;;;;;;7.53;5.67;;;12.50;99.90;;;;;;5053060;28;20438;-52
2021/10/18 03:43:47;;;;;;;14.17;5.93;;;12.50;99.90;;;;;;5055161;28;20453;-52
2021/10/18 03:46:14;;;;;;;10.53;6.23;;;12.10;99.90;;;;;;5055280;28;20663;-52
2021/10/18 03:48:41;;;;;;;7.67;6.73;;;11.70;99.90;;;;;;5054711;28;20443;-52
2021/10/18 03:51:07;;;;;;;7.23;5.50;;;12.60;99.90;;;;;;5054738;28;20533;-52
2021/10/18 03:53:34;;;;;;;10.57;5.40;;;12.60;99.90;;;;;;5055025;28;20430;-52
2021/10/18 03:56:02;;;;;;;14.80;5.80;;;12.20;99.90;;;;;;5054838;28;20444;-52
2021/10/18 03:58:28;;;;;;;10.97;5.93;;;12.10;99.90;;;;;;5054701;28;20900;-52
2021/10/18 04:00:55;;;;;;;12.23;6.30;;;12.20;99.90;;;;;;5054811;28;20451;-52
2021/10/18 04:03:22;;;;;;;7.13;4.70;;;12.30;99.90;;;;;;5054990;28;20471;-52
2021/10/18 04:05:48;;;;;;;5.57;4.70;;;12.40;99.90;;;;;;5054915;28;20506;-51
2021/10/18 04:08:15;;;;;;;8.50;5.00;;;11.80;99.90;;;;;;5054341;28;20445;-52
2021/10/18 04:10:43;;;;;;;10.73;5.30;;;12.40;99.90;;;;;;5054866;28;20453;-52
2021/10/18 04:13:11;;;;;;;7.80;4.97;;;12.60;99.90;;;;;;5054655;28;20921;-52
2021/10/18 04:15:37;;;;;;;7.37;5.30;;;12.30;99.90;;;;;;5054520;28;20440;-52
2021/10/18 04:18:04;;;;;;;7.27;4.63;;;12.30;99.90;;;;;;5054285;28;20416;-52
2021/10/18 04:20:30;;;;;;;8.47;5.30;;;12.00;99.90;;;;;;5054420;28;20468;-52
2021/10/18 04:22:57;;;;;;;6.23;5.40;;;11.90;99.90;;;;;;5054467;28;20478;-52
2021/10/18 04:25:25;;;;;;;9.17;5.40;;;12.10;99.90;;;;;;5054136;28;20428;-51
2021/10/18 04:27:51;;;;;;;7.37;5.60;;;12.20;99.90;;;;;;5053711;28;20444;-52
2021/10/18 04:30:19;;;;;;;8.37;5.87;;;12.60;99.90;;;;;;5054439;28;20454;-51
2021/10/18 04:32:46;;;;;;;9.37;5.37;;;12.00;99.90;;;;;;5053876;28;20418;-51
2021/10/18 04:35:12;;;;;;;10.03;5.50;;;12.30;99.90;;;;;;5054006;28;20410;-52
2021/10/18 04:37:39;;;;;;;8.57;5.63;;;12.20;99.90;;;;;;5053759;28;20522;-51
2021/10/18 04:40:07;;;;;;;6.50;4.67;;;12.40;99.90;;;;;;5053983;28;20451;-51
2021/10/18 04:42:33;;;;;;;6.20;5.20;;;12.20;99.90;;;;;;5053734;28;20705;-52
2021/10/18 04:45:04;;;;;;;7.37;4.50;;;11.90;99.90;;;;;;5054101;28;20423;-51
2021/10/18 04:47:32;;;;;;;19.70;9.90;;;12.40;99.90;;;;;;5053508;28;20928;-51
2021/10/18 04:49:58;;;;;;;13.10;6.03;;;11.80;99.90;;;;;;5053313;28;20463;-51
2021/10/18 04:52:25;;;;;;;8.57;4.60;;;12.60;99.90;;;;;;5053481;28;20439;-51
2021/10/18 04:54:51;;;;;;;6.80;4.70;;;12.30;99.90;;;;;;5053663;28;20783;-52
2021/10/18 04:57:18;;;;;;;8.70;4.90;;;12.30;99.90;;;;;;5053507;28;20464;-51
2021/10/18 04:59:45;;;;;;;6.30;4.43;;;11.70;99.90;;;;;;5053229;28;20435;-52
2021/10/18 05:02:11;;;;;;;6.33;4.80;;;12.30;99.90;;;;;;5053488;28;20434;-51
2021/10/18 05:04:39;;;;;;;6.57;5.20;;;11.90;99.90;;;;;;5053150;28;20458;-52
2021/10/18 05:07:06;;;;;;;9.50;5.00;;;12.10;99.90;;;;;;5053682;28;20449;-52
2021/10/18 05:09:33;;;;;;;7.80;5.60;;;12.10;99.90;;;;;;5052784;28;20461;-51
2021/10/18 05:12:01;;;;;;;9.67;5.10;;;12.10;99.90;;;;;;5053596;28;20805;-52
2021/10/18 05:14:28;;;;;;;5.57;5.00;;;12.10;99.90;;;;;;5053318;28;20791;-51
2021/10/18 05:16:55;;;;;;;7.23;5.80;;;12.10;99.90;;;;;;5053066;28;20433;-51
2021/10/18 05:19:22;;;;;;;6.13;4.50;;;12.10;99.90;;;;;;5052749;28;20955;-51
2021/10/18 05:21:50;;;;;;;7.27;5.40;;;12.10;99.90;;;;;;5053426;28;20442;-51
2021/10/18 05:24:16;;;;;;;6.67;4.90;;;11.90;99.90;;;;;;5052851;28;20797;-51
2021/10/18 05:26:43;;;;;;;7.93;4.70;;;12.00;99.90;;;;;;5053102;28;20454;-51
2021/10/18 05:29:10;;;;;;;10.70;6.80;;;12.40;99.90;;;;;;5052351;28;20441;-52
2021/10/18 05:31:36;;;;;;;8.97;5.37;;;11.90;99.90;;;;;;5052969;28;20434;-51
2021/10/18 05:34:03;;;;;;;7.33;4.93;;;12.20;99.90;;;;;;5052468;28;20457;-51
2021/10/18 05:36:29;;;;;;;7.90;5.97;;;12.00;99.90;;;;;;5052990;28;20420;-51
2021/10/18 05:38:57;;;;;;;7.77;4.97;;;10.90;99.90;;;;;;5052634;28;20436;-51
2021/10/18 05:41:24;;;;;;;17.00;5.87;;;11.30;99.90;;;;;;5052731;28;20523;-51
2021/10/18 05:43:51;;;;;;;10.00;6.30;;;11.60;99.90;;;;;;5052398;28;20532;-51
2021/10/18 05:46:18;;;;;;;6.50;5.87;;;11.70;99.90;;;;;;5052668;28;20441;-51
2021/10/18 05:48:44;;;;;;;7.47;5.63;;;11.60;99.90;;;;;;5052144;28;20443;-51
2021/10/18 05:51:11;;;;;;;11.47;5.40;;;11.20;99.90;;;;;;5052630;28;20466;-52
2021/10/18 05:53:38;;;;;;;9.10;6.30;;;11.00;99.90;;;;;;5052498;28;20484;-51
2021/10/18 05:56:06;;;;;;;20.57;7.70;;;11.80;99.90;;;;;;5034473;28;20413;-51
2021/10/18 05:58:33;;;;;;;12.27;6.73;;;11.60;99.90;;;;;;5051894;28;21018;-51
2021/10/18 06:01:00;;;;;;;8.57;6.00;;;11.60;99.90;;;;;;5052033;28;20942;-51
2021/10/18 06:03:26;;;;;;;12.07;5.17;;;11.30;99.90;;;;;;5051457;28;20539;-51
2021/10/18 06:05:53;;;;;;;14.53;5.80;;;11.60;99.90;;;;;;5034418;28;20448;-52
2021/10/18 06:08:20;;;;;;;11.20;6.67;;;11.90;99.90;;;;;;5051555;28;20447;-51
2021/10/18 06:10:46;;;;;;;7.20;5.17;;;11.70;99.90;;;;;;5052231;28;20459;-51
2021/10/18 06:13:14;;;;;;;12.33;6.10;;;11.70;99.90;;;;;;5052237;28;20435;-51
2021/10/18 06:15:41;;;;;;;17.80;11.63;;;11.70;99.90;;;;;;5051892;28;20939;-51
2021/10/18 06:18:13;;;;;;;11.83;7.57;;;11.90;99.90;;;;;;5051512;28;20440;-51
2021/10/18 06:20:41;;;;;;;12.13;5.87;;;12.30;99.90;;;;;;5051556;28;20453;-52
2021/10/18 06:23:07;;;;;;;7.03;5.30;;;12.10;99.90;;;;;;5033820;28;20425;-52
2021/10/18 06:25:34;;;;;;;5.70;4.63;;;12.20;99.90;;;;;;5051485;28;20409;-52
2021/10/18 06:28:01;;;;;;;10.07;4.97;;;12.50;99.90;;;;;;5050747;28;20453;-52
2021/10/18 06:30:29;;;;;;;6.00;4.63;;;12.30;99.90;;;;;;5051264;28;20459;-51
2021/10/18 06:32:56;;;;;;;12.03;5.33;;;12.20;99.90;;;;;;5051575;28;20407;-52
2021/10/18 06:35:23;;;;;;;8.00;5.03;;;12.20;99.90;;;;;;5051028;28;20436;-52
2021/10/18 06:37:49;;;;;;;7.40;4.63;;;12.40;99.90;;;;;;5051119;28;20479;-52
2021/10/18 06:40:16;;;;;;;13.40;6.33;;;12.20;99.90;;;;;;5051264;28;20456;-52
2021/10/18 06:42:43;;;;;;;12.20;6.43;;;11.80;99.90;;;;;;5051218;28;20428;-52
2021/10/18 06:45:11;;;;;;;6.30;4.67;;;12.60;99.90;;;;;;5051281;28;20485;-52
2021/10/18 06:47:39;;;;;;;11.70;6.70;;;12.50;99.90;;;;;;5050852;28;20787;-52
2021/10/18 06:50:07;;;;;;;11.67;6.67;;;12.60;99.90;;;;;;5050560;28;20475;-52
2021/10/18 06:52:35;;;;;;;11.50;6.40;;;12.30;99.90;;;;;;5051206;28;20431;-52
2021/10/18 06:55:04;;;;;;;10.67;7.70;;;12.80;99.90;;;;;;5051134;28;20441;-52
2021/10/18 06:57:31;;;;;;;13.53;8.83;;;12.50;99.90;;;;;;5050804;28;20896;-52
2021/10/18 06:59:58;;;;;;;9.27;7.03;;;12.70;99.90;;;;;;5050760;28;20455;-52
2021/10/18 07:02:25;;;;;;;9.10;6.60;;;12.90;99.90;;;;;;5050749;28;20795;-52
2021/10/18 07:04:52;;;;;;;8.70;6.20;;;12.80;99.90;;;;;;5050806;28;20479;-51
2021/10/18 07:07:19;;;;;;;11.57;6.03;;;12.90;99.90;;;;;;5050548;28;20406;-53
2021/10/18 07:09:46;;;;;;;8.13;5.13;;;12.70;99.90;;;;;;5050736;28;20461;-52
2021/10/18 07:12:13;;;;;;;8.70;5.43;;;12.70;99.90;;;;;;5050682;28;20445;-52
2021/10/18 07:14:39;;;;;;;8.93;5.53;;;12.80;99.90;;;;;;5051159;28;20430;-52
2021/10/18 07:17:06;;;;;;;14.17;6.13;;;12.60;99.90;;;;;;5051078;28;20782;-52
2021/10/18 07:19:32;;;;;;;8.30;5.53;;;13.00;99.90;;;;;;5050366;28;20454;-52
2021/10/18 07:22:00;;;;;;;8.57;5.50;;;12.80;99.90;;;;;;5050813;28;20434;-52
2021/10/18 07:24:27;;;;;;;8.43;5.87;;;12.90;99.90;;;;;;5050481;28;20995;-51
2021/10/18 07:26:54;;;;;;;6.83;5.10;;;13.00;99.90;;;;;;5050816;28;20451;-52
2021/10/18 07:29:21;;;;;;;9.90;5.37;;;13.40;99.90;;;;;;5050202;28;20463;-51
2021/10/18 07:31:49;;;;;;;8.23;5.67;;;12.80;99.90;;;;;;5050651;28;20438;-51
2021/10/18 07:34:17;;;;;;;7.90;5.10;;;13.10;99.90;;;;;;5050509;28;20524;-52
2021/10/18 07:36:49;;;;;;;10.17;5.87;;;13.40;99.90;;;;;;5050751;28;20469;-51
2021/10/18 07:39:20;;;;;;;12.23;5.50;;;13.50;99.90;;;;;;5050614;28;20478;-52
2021/10/18 07:41:47;;;;;;;7.10;4.17;;;13.50;99.90;;;;;;5050649;28;20432;-52
2021/10/18 07:44:14;;;;;;;6.83;4.27;;;13.80;99.90;;;;;;5050447;28;20485;-51
2021/10/18 07:46:41;;;;;;;10.40;4.93;;;13.80;99.90;;;;;;5050296;28;20804;-51
2021/10/18 07:49:09;;;;;;;8.97;4.67;;;14.00;99.90;;;;;;5049797;28;21122;-51
2021/10/18 07:51:36;;;;;;;7.17;4.60;;;13.40;99.90;;;;;;5050372;28;20436;-52
2021/10/18 07:54:03;;;;;;;6.07;4.00;;;13.90;99.90;;;;;;5050479;28;20904;-51
2021/10/18 07:56:33;;;;;;;6.00;4.33;;;14.10;99.90;;;;;;5050091;28;20500;-52
2021/10/18 07:58:59;;;;;;;7.17;4.83;;;13.70;99.90;;;;;;5050246;28;20477;-52
2021/10/18 08:01:26;;;;;;;10.80;4.37;;;13.80;99.90;;;;;;5032532;28;20453;-52
2021/10/18 08:03:53;;;;;;;6.87;3.63;;;14.10;99.90;;;;;;5050287;28;20437;-52
2021/10/18 08:06:19;;;;;;;7.90;4.20;;;13.60;99.90;;;;;;5050736;28;20433;-51
2021/10/18 08:08:48;;;;;;;7.97;4.07;;;14.20;99.90;;;;;;5050482;28;20444;-52
2021/10/18 08:11:15;;;;;;;5.53;3.90;;;13.70;99.90;;;;;;5050362;28;20482;-51
2021/10/18 08:13:43;;;;;;;6.63;3.80;;;13.90;99.90;;;;;;5050315;28;20463;-52
2021/10/18 08:16:10;;;;;;;8.43;4.50;;;14.30;99.90;;;;;;5049885;28;20777;-52
2021/10/18 08:18:37;;;;;;;10.30;4.80;;;14.00;99.90;;;;;;5050064;28;20441;-51
2021/10/18 08:21:04;;;;;;;16.20;4.67;;;14.00;99.90;;;;;;5050086;28;20457;-52
2021/10/18 08:23:32;;;;;;;6.53;4.70;;;14.30;99.90;;;;;;5050185;28;20464;-52
2021/10/18 08:25:59;;;;;;;11.40;4.93;;;14.50;99.90;;;;;;5032324;28;20486;-51
2021/10/18 08:28:25;;;;;;;6.20;4.50;;;14.60;99.90;;;;;;5053171;28;20431;-52
2021/10/18 08:30:53;;;;;;;8.50;5.40;;;14.10;99.90;;;;;;5054098;28;20992;-52
2021/10/18 08:33:20;;;;;;;9.43;5.50;;;14.40;99.90;;;;;;5053618;28;20927;-52
2021/10/18 08:35:47;;;;;;;5.30;4.40;;;14.50;99.90;;;;;;5053438;28;20410;-52
2021/10/18 08:38:19;;;;;;;6.27;4.00;;;14.70;99.90;;;;;;5053347;28;20472;-52
2021/10/18 08:40:57;;;;;;;7.07;3.90;;;14.10;99.90;;;;;;5053892;28;20468;-52
2021/10/18 08:44:13;;;;;;;8.57;4.20;;;14.60;99.90;;;;;;5054059;28;20426;-52
2021/10/18 08:46:20;;;;;;;10.80;4.73;;;15.00;99.90;;;;;;5053176;28;20499;-52
2021/10/18 08:48:50;;;;;;;9.97;4.50;;;14.70;99.90;;;;;;5052627;28;20531;-52
2021/10/18 08:51:17;;;;;;;7.43;4.60;;;14.70;99.90;;;;;;5093767;22;20588;-50
2021/10/18 08:53:44;;;;;;;6.43;4.23;;;14.70;99.90;;;;;;5073529;28;20539;-50
2021/10/18 08:56:11;;;;;;;5.07;4.00;;;14.70;99.90;;;;;;5073423;28;20498;-51
2021/10/18 08:58:38;;;;;;;9.00;4.20;;;14.70;99.90;;;;;;5072927;28;20871;-55
2021/10/18 09:01:05;;;;;;;10.47;4.20;;;14.70;99.90;;;;;;5073597;28;20460;-49
2021/10/18 09:03:33;;;;;;;7.97;4.10;;;14.80;99.90;;;;;;5073648;28;20444;-50
2021/10/18 09:06:11;;;;;;;7.03;4.20;;;14.80;99.90;;;;;;5073524;28;20472;-50
2021/10/18 09:08:39;;;;;;;8.77;4.53;;;14.60;99.90;;;;;;5073164;28;20763;-50
2021/10/18 09:11:09;;;;;;;11.20;4.57;;;14.80;99.90;;;;;;5073484;28;20540;-50
2021/10/18 09:13:42;;;;;;;10.27;5.00;;;14.90;99.90;;;;;;5073191;28;20441;-50
2021/10/18 09:16:11;;;;;;;9.53;3.60;;;14.90;99.90;;;;;;5054932;28;20530;-50
2021/10/18 09:18:39;;;;;;;7.97;4.80;;;14.90;99.90;;;;;;5072702;28;20502;-50
2021/10/18 09:21:06;;;;;;;6.90;4.47;;;15.00;99.90;;;;;;5073040;28;20450;-50
2021/10/18 09:23:36;;;;;;;7.00;4.47;;;15.10;99.90;;;;;;5073256;28;20948;-49
2021/10/18 09:26:06;;;;;;;5.43;3.70;;;15.10;99.90;;;;;;5072771;28;20509;-49
2021/10/18 09:28:33;;;;;;;7.47;4.40;;;15.00;99.90;;;;;;5072451;28;20468;-50
2021/10/18 09:31:01;;;;;;;8.10;4.80;;;15.30;99.90;;;;;;5072900;28;20499;-49
2021/10/18 09:33:31;;;;;;;8.63;4.20;;;15.40;99.90;;;;;;5072534;28;20739;-51
2021/10/18 09:36:03;;;;;;;7.70;4.50;;;15.40;99.90;;;;;;5073345;28;20437;-49
2021/10/18 09:38:30;;;;;;;5.47;4.07;;;15.50;99.90;;;;;;5071261;28;20487;-50
2021/10/18 09:40:59;;;;;;;11.23;4.23;;;15.60;99.80;;;;;;5072696;28;20454;-51
2021/10/18 09:43:32;;;;;;;9.07;3.50;;;15.60;99.50;;;;;;5072865;28;20438;-50
2021/10/18 09:46:09;;;;;;;6.03;3.83;;;15.70;99.20;;;;;;5054875;28;20488;-50
2021/10/18 10:53:19;;;;;;;4.57;3.23;;;15.70;96.80;;;;;;5071518;28;20442;-50
2021/10/18 10:55:46;;;;;;;6.07;2.83;;;15.70;96.70;;;;;;5053391;28;20511;-50
2021/10/18 10:58:35;;;;;;;5.33;3.10;;;15.70;96.50;;;;;;5070994;28;20407;-50
2021/10/18 11:01:02;;;;;;;6.83;3.30;;;15.50;96.30;;;;;;5071215;28;20449;-49
2021/10/18 11:03:40;;;;;;;9.67;3.90;;;15.60;96.60;;;;;;5070827;28;20430;-51
2021/10/18 11:06:09;;;;;;;4.40;3.10;;;15.60;96.50;;;;;;5071154;28;20481;-51
2021/10/18 11:08:38;;;;;;;7.37;3.20;;;15.60;96.70;;;;;;5073185;28;20479;-50
2021/10/18 11:11:13;;;;;;;3.97;2.60;;;15.50;96.70;;;;;;5071687;28;20464;-50
2021/10/18 11:13:44;;;;;;;5.77;3.13;;;15.50;96.80;;;;;;5071030;28;20432;-50
2021/10/18 11:16:11;;;;;;;4.57;3.53;;;15.30;96.60;;;;;;5071226;28;20798;-50
2021/10/18 11:18:39;;;;;;;7.83;3.47;;;15.70;96.90;;;;;;5070742;28;20438;-50
2021/10/18 11:21:13;;;;;;;6.50;3.10;;;15.50;96.90;;;;;;5052917;28;20483;-50
2021/10/18 11:24:01;;;;;;;7.00;3.07;;;15.50;96.90;;;;;;5071021;28;20400;-50
2021/10/18 11:26:29;;;;;;;6.70;3.00;;;15.50;96.90;;;;;;5070715;28;20481;-50
2021/10/18 11:28:59;;;;;;;4.80;2.80;;;15.40;96.90;;;;;;5070685;28;20434;-50
2021/10/18 11:31:29;;;;;;;6.70;3.50;;;15.70;97.00;;;;;;5071234;28;20457;-50
2021/10/18 11:34:04;;;;;;;5.37;3.47;;;15.70;97.00;;;;;;5070468;28;20433;-49
2021/10/18 11:36:31;;;;;;;7.37;3.90;;;15.70;96.80;;;;;;5070834;28;20433;-50
2021/10/18 11:39:09;;;;;;;6.37;4.00;;;16.10;97.10;;;;;;5070398;28;20430;-50
2021/10/18 11:42:01;;;;;;;10.17;4.23;;;15.90;96.90;;;;;;5070746;28;20450;-50
2021/10/18 11:44:40;;;;;;;3.93;3.00;;;15.90;96.70;;;;;;5070466;28;20499;-50
2021/10/18 11:47:20;;;;;;;3.80;2.93;;;16.00;96.60;;;;;;5070796;28;20442;-49
2021/10/18 11:50:12;;;;;;;4.30;3.47;;;16.00;96.40;;;;;;5070100;28;20469;-50
2021/10/18 11:52:48;;;;;;;7.63;3.20;;;16.00;96.00;;;;;;5071033;28;20470;-51
2021/10/18 11:55:18;;;;;;;3.57;3.03;;;16.10;96.20;;;;;;5071239;28;20429;-50
2021/10/18 11:57:47;;;;;;;4.30;2.70;;;16.10;95.70;;;;;;5070679;28;21040;-50
2021/10/18 12:00:21;;;;;;;2.87;2.20;;;16.10;96.10;;;;;;5070891;28;20465;-51
2021/10/18 12:02:48;;;;;;;4.60;2.73;;;16.20;95.70;;;;;;5074026;28;21034;-51
2021/10/18 12:05:16;;;;;;;8.73;2.97;;;16.20;95.30;;;;;;5074364;28;20462;-51
2021/10/18 12:07:45;;;;;;;6.07;2.90;;;16.30;95.40;;;;;;5074511;28;20473;-51
2021/10/18 12:10:20;;;;;;;4.13;3.00;;;16.30;95.20;;;;;;5074446;28;20453;-51
2021/10/18 12:13:18;;;;;;;4.07;3.03;;;16.40;95.10;;;;;;5074305;28;20433;-50
2021/10/18 12:15:59;;;;;;;6.90;3.50;;;16.50;94.50;;;;;;5055469;28;20454;-51
2021/10/18 12:18:27;;;;;;;3.93;2.80;;;16.50;94.50;;;;;;5074009;28;20488;-51
2021/10/18 12:20:56;;;;;;;3.80;3.17;;;16.50;94.20;;;;;;5074370;28;20692;-51
2021/10/18 12:23:26;;;;;;;7.97;2.80;;;16.60;94.10;;;;;;5074295;28;20442;-51
2021/10/18 12:26:02;;;;;;;7.57;2.90;;;16.40;93.70;;;;;;5074299;28;21021;-50
2021/10/18 12:28:41;;;;;;;4.20;2.87;;;16.70;93.80;;;;;;5074519;28;20453;-50
2021/10/18 12:31:26;;;;;;;6.00;2.27;;;16.40;93.50;;;;;;5073734;28;20450;-50
2021/10/18 12:34:01;;;;;;;7.43;2.13;;;16.90;93.30;;;;;;5073996;28;20435;-50
2021/10/18 12:36:28;;;;;;;3.50;2.23;;;16.90;93.20;;;;;;5074001;28;20800;-50
2021/10/18 12:38:55;;;;;;;2.87;2.67;;;16.80;93.20;;;;;;5073735;28;20459;-50
2021/10/18 12:41:22;;;;;;;4.70;1.87;;;16.60;93.10;;;;;;5073475;28;20461;-50
2021/10/18 12:43:50;;;;;;;4.17;2.30;;;16.90;93.30;;;;;;5073445;28;20431;-50
2021/10/18 12:46:20;;;;;;;3.90;2.67;;;16.90;93.30;;;;;;5073876;28;20490;-50
2021/10/18 12:49:02;;;;;;;4.00;2.70;;;16.90;93.30;;;;;;5073153;28;20442;-49
2021/10/18 12:51:41;;;;;;;7.70;2.90;;;16.70;93.00;;;;;;5073734;28;20793;-50
2021/10/18 12:54:19;;;;;;;6.80;2.90;;;17.10;93.10;;;;;;5074066;28;20436;-50
2021/10/18 12:56:56;;;;;;;5.20;2.97;;;17.00;92.90;;;;;;5074103;28;20871;-50
2021/10/18 12:59:22;;;;;;;6.33;2.20;;;16.90;92.60;;;;;;5073216;28;20849;-50
2021/10/18 13:02:24;;;;;;;10.13;2.97;;;16.90;92.60;;;;;;5073428;28;20449;-50
2021/10/18 13:05:11;;;;;;;7.40;4.60;;;17.00;92.60;;;;;;5073383;28;20431;-50
2021/10/18 13:07:39;;;;;;;2.90;2.20;;;16.90;92.40;;;;;;5073428;28;20426;-50
2021/10/18 13:10:08;;;;;;;4.27;2.50;;;16.90;92.70;;;;;;5073080;28;20793;-50
2021/10/18 13:12:35;;;;;;;7.07;3.30;;;17.00;92.60;;;;;;5073189;28;20440;-50
2021/10/18 13:15:02;;;;;;;4.33;2.40;;;16.90;92.50;;;;;;5073222;28;20527;-50
2021/10/18 13:17:30;;;;;;;3.33;2.47;;;17.00;92.70;;;;;;5073625;28;20434;-51
2021/10/18 13:19:57;;;;;;;7.60;3.50;;;17.00;92.70;;;;;;5072438;28;20561;-50
2021/10/18 13:22:24;;;;;;;5.43;3.13;;;17.00;92.60;;;;;;5073007;28;20440;-51
2021/10/18 13:24:52;;;;;;;3.97;2.03;;;17.00;92.40;;;;;;5073329;28;20522;-49
2021/10/18 13:27:20;;;;;;;4.80;2.60;;;17.00;92.10;;;;;;5072721;28;20516;-50
2021/10/18 13:29:47;;;;;;;3.70;2.53;;;17.00;92.10;;;;;;5072597;28;20454;-58
2021/10/18 13:32:14;;;;;;;2.63;2.40;;;17.10;92.20;;;;;;5072841;28;20495;-50
2021/10/18 13:34:44;;;;;;;5.07;4.10;;;17.00;92.10;;;;;;5072984;28;20429;-50
2021/10/18 13:37:12;;;;;;;3.93;2.83;;;17.20;92.10;;;;;;5072272;28;20434;-50
2021/10/18 13:39:39;;;;;;;6.50;2.83;;;17.00;92.00;;;;;;5072410;28;20450;-51
2021/10/18 13:42:06;;;;;;;3.80;3.10;;;17.00;91.90;;;;;;5072518;28;20449;-50
2021/10/18 13:44:33;;;;;;;5.13;2.13;;;17.00;91.80;;;;;;5073536;28;20449;-51
2021/10/18 13:47:00;;;;;;;7.27;5.63;;;17.10;91.70;;;;;;5053800;28;20478;-49
2021/10/18 13:49:26;;;;;;;5.10;2.33;;;17.00;91.30;;;;;;5071765;28;20433;-50
2021/10/18 13:51:55;;;;;;;4.20;2.30;;;16.90;91.10;;;;;;5071987;28;20450;-51
2021/10/18 13:54:22;;;;;;;7.37;3.40;;;17.20;91.20;;;;;;5072164;28;20440;-51